sensor_id;sensor_type;location;lat;lon;timestamp;P1;durP1;ratioP1;P2;durP2;ratioP2
527;SDS011;250;47.712;7.508;2022-08-18T00:00:06;7.67;;;5.23;;
527;SDS011;250;47.712;7.508;2022-08-18T00:02:39;9.17;;;6.97;;
527;SDS011;250;47.712;7.508;2022-08-18T00:05:08;6.57;;;5.33;;
527;SDS011;250;47.712;7.508;2022-08-18T00:07:36;7.30;;;6.20;;
527;SDS011;250;47.712;7.508;2022-08-18T00:10:05;7.23;;;5.73;;
527;SDS011;250;47.712;7.508;2022-08-18T00:12:34;8.30;;;5.50;;
527;SDS011;250;47.712;7.508;2022-08-18T00:15:03;7.07;;;5.97;;
527;SDS011;250;47.712;7.508;2022-08-18T00:17:32;7.83;;;6.43;;
527;SDS011;250;47.712;7.508;2022-08-18T00:20:04;8.83;;;7.30;;
527;SDS011;250;47.712;7.508;2022-08-18T00:22:34;8.40;;;7.50;;
527;SDS011;250;47.712;7.508;2022-08-18T00:25:04;11.07;;;7.20;;
527;SDS011;250;47.712;7.508;2022-08-18T00:27:34;7.83;;;7.07;;
527;SDS011;250;47.712;7.508;2022-08-18T00:30:03;7.43;;;6.57;;
527;SDS011;250;47.712;7.508;2022-08-18T00:32:33;7.57;;;6.23;;
527;SDS011;250;47.712;7.508;2022-08-18T00:35:07;7.40;;;6.60;;
527;SDS011;250;47.712;7.508;2022-08-18T00:37:37;10.30;;;7.20;;
527;SDS011;250;47.712;7.508;2022-08-18T00:40:05;7.90;;;7.20;;
527;SDS011;250;47.712;7.508;2022-08-18T00:42:36;8.10;;;6.67;;
527;SDS011;250;47.712;7.508;2022-08-18T00:45:09;8.80;;;6.87;;
527;SDS011;250;47.712;7.508;2022-08-18T00:47:40;10.63;;;6.50;;
527;SDS011;250;47.712;7.508;2022-08-18T00:50:09;9.90;;;6.80;;
527;SDS011;250;47.712;7.508;2022-08-18T00:52:39;8.43;;;7.50;;
527;SDS011;250;47.712;7.508;2022-08-18T00:55:07;10.87;;;8.13;;
527;SDS011;250;47.712;7.508;2022-08-18T00:57:35;8.07;;;6.33;;
527;SDS011;250;47.712;7.508;2022-08-18T01:00:04;9.00;;;7.07;;
527;SDS011;250;47.712;7.508;2022-08-18T01:02:39;10.57;;;7.93;;
527;SDS011;250;47.712;7.508;2022-08-18T01:05:17;7.73;;;6.83;;
527;SDS011;250;47.712;7.508;2022-08-18T01:07:48;8.10;;;6.37;;
527;SDS011;250;47.712;7.508;2022-08-18T01:10:16;8.63;;;6.80;;
527;SDS011;250;47.712;7.508;2022-08-18T01:12:46;9.30;;;7.07;;
527;SDS011;250;47.712;7.508;2022-08-18T01:15:17;7.80;;;6.60;;
527;SDS011;250;47.712;7.508;2022-08-18T01:17:46;8.27;;;7.27;;
527;SDS011;250;47.712;7.508;2022-08-18T01:20:33;9.20;;;7.10;;
527;SDS011;250;47.712;7.508;2022-08-18T01:23:26;7.70;;;6.80;;
527;SDS011;250;47.712;7.508;2022-08-18T01:25:55;9.07;;;7.23;;
527;SDS011;250;47.712;7.508;2022-08-18T01:28:24;10.47;;;8.07;;
527;SDS011;250;47.712;7.508;2022-08-18T01:30:53;8.97;;;8.07;;
527;SDS011;250;47.712;7.508;2022-08-18T01:33:22;8.70;;;7.60;;
527;SDS011;250;47.712;7.508;2022-08-18T01:35:51;8.33;;;7.40;;
527;SDS011;250;47.712;7.508;2022-08-18T01:38:20;7.70;;;6.87;;
527;SDS011;250;47.712;7.508;2022-08-18T01:40:49;7.83;;;7.03;;
527;SDS011;250;47.712;7.508;2022-08-18T01:43:16;8.93;;;7.67;;
527;SDS011;250;47.712;7.508;2022-08-18T01:45:43;11.33;;;7.40;;
527;SDS011;250;47.712;7.508;2022-08-18T01:48:11;9.43;;;8.10;;
527;SDS011;250;47.712;7.508;2022-08-18T01:50:38;9.43;;;7.53;;
527;SDS011;250;47.712;7.508;2022-08-18T01:53:08;11.10;;;7.93;;
527;SDS011;250;47.712;7.508;2022-08-18T01:55:37;8.47;;;7.33;;
527;SDS011;250;47.712;7.508;2022-08-18T01:58:10;10.03;;;7.70;;
527;SDS011;250;47.712;7.508;2022-08-18T02:00:37;8.57;;;6.90;;
527;SDS011;250;47.712;7.508;2022-08-18T02:03:06;8.90;;;7.17;;
527;SDS011;250;47.712;7.508;2022-08-18T02:05:39;9.20;;;7.47;;
527;SDS011;250;47.712;7.508;2022-08-18T02:08:08;7.57;;;6.83;;
527;SDS011;250;47.712;7.508;2022-08-18T02:10:36;7.80;;;6.30;;
527;SDS011;250;47.712;7.508;2022-08-18T02:13:03;9.93;;;6.40;;
527;SDS011;250;47.712;7.508;2022-08-18T02:15:32;9.67;;;6.67;;
527;SDS011;250;47.712;7.508;2022-08-18T02:18:00;7.90;;;6.57;;
527;SDS011;250;47.712;7.508;2022-08-18T02:20:27;7.07;;;6.37;;
527;SDS011;250;47.712;7.508;2022-08-18T02:22:54;6.70;;;5.97;;
527;SDS011;250;47.712;7.508;2022-08-18T02:25:22;8.13;;;6.13;;
527;SDS011;250;47.712;7.508;2022-08-18T02:27:50;12.83;;;8.10;;
527;SDS011;250;47.712;7.508;2022-08-18T02:30:17;9.23;;;6.80;;
527;SDS011;250;47.712;7.508;2022-08-18T02:32:46;9.03;;;7.23;;
527;SDS011;250;47.712;7.508;2022-08-18T02:35:13;11.00;;;8.67;;
527;SDS011;250;47.712;7.508;2022-08-18T02:37:41;8.33;;;7.03;;
527;SDS011;250;47.712;7.508;2022-08-18T02:40:12;8.30;;;7.50;;
527;SDS011;250;47.712;7.508;2022-08-18T02:42:40;7.27;;;6.57;;
527;SDS011;250;47.712;7.508;2022-08-18T02:45:07;9.57;;;7.17;;
527;SDS011;250;47.712;7.508;2022-08-18T02:47:34;8.17;;;7.37;;
527;SDS011;250;47.712;7.508;2022-08-18T02:50:03;11.13;;;6.97;;
527;SDS011;250;47.712;7.508;2022-08-18T02:52:31;8.17;;;6.83;;
527;SDS011;250;47.712;7.508;2022-08-18T02:54:59;8.53;;;6.80;;
527;SDS011;250;47.712;7.508;2022-08-18T02:57:27;7.77;;;6.97;;
527;SDS011;250;47.712;7.508;2022-08-18T02:59:55;8.67;;;7.30;;
527;SDS011;250;47.712;7.508;2022-08-18T03:02:22;7.70;;;7.00;;
527;SDS011;250;47.712;7.508;2022-08-18T03:04:49;8.30;;;7.10;;
527;SDS011;250;47.712;7.508;2022-08-18T03:07:18;8.50;;;6.50;;
527;SDS011;250;47.712;7.508;2022-08-18T03:09:45;20.50;;;6.63;;
527;SDS011;250;47.712;7.508;2022-08-18T03:12:12;9.70;;;7.13;;
527;SDS011;250;47.712;7.508;2022-08-18T03:14:39;7.87;;;7.03;;
527;SDS011;250;47.712;7.508;2022-08-18T03:17:07;9.43;;;7.40;;
527;SDS011;250;47.712;7.508;2022-08-18T03:19:35;8.13;;;7.30;;
527;SDS011;250;47.712;7.508;2022-08-18T03:22:02;9.00;;;7.60;;
527;SDS011;250;47.712;7.508;2022-08-18T03:24:31;8.77;;;7.40;;
527;SDS011;250;47.712;7.508;2022-08-18T03:26:58;8.60;;;7.70;;
527;SDS011;250;47.712;7.508;2022-08-18T03:29:26;12.77;;;7.43;;
527;SDS011;250;47.712;7.508;2022-08-18T03:31:53;9.57;;;7.63;;
527;SDS011;250;47.712;7.508;2022-08-18T03:34:20;8.80;;;7.70;;
527;SDS011;250;47.712;7.508;2022-08-18T03:36:47;12.00;;;8.43;;
527;SDS011;250;47.712;7.508;2022-08-18T03:39:16;8.30;;;7.10;;
527;SDS011;250;47.712;7.508;2022-08-18T03:41:45;8.20;;;7.30;;
527;SDS011;250;47.712;7.508;2022-08-18T03:44:13;12.03;;;9.03;;
527;SDS011;250;47.712;7.508;2022-08-18T03:46:41;9.23;;;8.10;;
527;SDS011;250;47.712;7.508;2022-08-18T03:49:10;8.70;;;7.37;;
527;SDS011;250;47.712;7.508;2022-08-18T03:51:37;9.30;;;8.00;;
527;SDS011;250;47.712;7.508;2022-08-18T03:54:07;8.83;;;7.70;;
527;SDS011;250;47.712;7.508;2022-08-18T03:56:37;8.47;;;7.67;;
527;SDS011;250;47.712;7.508;2022-08-18T03:59:08;9.97;;;8.20;;
527;SDS011;250;47.712;7.508;2022-08-18T04:01:38;11.20;;;7.90;;
527;SDS011;250;47.712;7.508;2022-08-18T04:04:07;10.43;;;8.27;;
527;SDS011;250;47.712;7.508;2022-08-18T04:06:36;11.23;;;7.20;;
527;SDS011;250;47.712;7.508;2022-08-18T04:09:08;18.53;;;8.90;;
527;SDS011;250;47.712;7.508;2022-08-18T04:11:37;8.70;;;7.60;;
527;SDS011;250;47.712;7.508;2022-08-18T04:14:08;12.83;;;9.40;;
527;SDS011;250;47.712;7.508;2022-08-18T04:16:36;11.00;;;9.27;;
527;SDS011;250;47.712;7.508;2022-08-18T04:19:03;9.33;;;8.33;;
527;SDS011;250;47.712;7.508;2022-08-18T04:21:32;9.17;;;8.10;;
527;SDS011;250;47.712;7.508;2022-08-18T04:24:01;10.63;;;8.50;;
527;SDS011;250;47.712;7.508;2022-08-18T04:26:29;12.17;;;9.20;;
527;SDS011;250;47.712;7.508;2022-08-18T04:28:57;15.17;;;9.73;;
527;SDS011;250;47.712;7.508;2022-08-18T04:31:26;11.80;;;10.00;;
527;SDS011;250;47.712;7.508;2022-08-18T04:33:55;10.23;;;9.23;;
527;SDS011;250;47.712;7.508;2022-08-18T04:36:22;11.63;;;10.07;;
527;SDS011;250;47.712;7.508;2022-08-18T04:38:50;9.90;;;8.90;;
527;SDS011;250;47.712;7.508;2022-08-18T04:41:17;10.40;;;9.30;;
527;SDS011;250;47.712;7.508;2022-08-18T04:43:48;14.37;;;9.97;;
527;SDS011;250;47.712;7.508;2022-08-18T04:46:18;10.90;;;8.50;;
527;SDS011;250;47.712;7.508;2022-08-18T04:48:46;12.73;;;9.53;;
527;SDS011;250;47.712;7.508;2022-08-18T04:51:14;13.17;;;10.23;;
527;SDS011;250;47.712;7.508;2022-08-18T04:53:42;12.90;;;10.40;;
527;SDS011;250;47.712;7.508;2022-08-18T04:56:11;10.67;;;9.50;;
527;SDS011;250;47.712;7.508;2022-08-18T04:58:42;13.90;;;10.70;;
527;SDS011;250;47.712;7.508;2022-08-18T05:01:09;11.73;;;10.07;;
527;SDS011;250;47.712;7.508;2022-08-18T05:03:36;13.10;;;10.57;;
527;SDS011;250;47.712;7.508;2022-08-18T05:06:05;12.30;;;10.40;;
527;SDS011;250;47.712;7.508;2022-08-18T05:08:32;14.37;;;11.50;;
527;SDS011;250;47.712;7.508;2022-08-18T05:11:00;13.20;;;11.13;;
527;SDS011;250;47.712;7.508;2022-08-18T05:13:27;13.97;;;11.30;;
527;SDS011;250;47.712;7.508;2022-08-18T05:15:54;13.80;;;8.50;;
527;SDS011;250;47.712;7.508;2022-08-18T05:18:27;10.60;;;9.27;;
527;SDS011;250;47.712;7.508;2022-08-18T05:20:54;13.10;;;10.37;;
527;SDS011;250;47.712;7.508;2022-08-18T05:23:24;12.80;;;9.60;;
527;SDS011;250;47.712;7.508;2022-08-18T05:25:55;13.37;;;10.80;;
527;SDS011;250;47.712;7.508;2022-08-18T05:28:23;10.70;;;9.00;;
527;SDS011;250;47.712;7.508;2022-08-18T05:30:50;11.43;;;9.73;;
527;SDS011;250;47.712;7.508;2022-08-18T05:33:17;12.20;;;10.80;;
527;SDS011;250;47.712;7.508;2022-08-18T05:35:46;11.57;;;10.30;;
527;SDS011;250;47.712;7.508;2022-08-18T05:38:24;12.67;;;9.87;;
527;SDS011;250;47.712;7.508;2022-08-18T05:41:05;10.33;;;8.80;;
527;SDS011;250;47.712;7.508;2022-08-18T05:43:34;13.43;;;10.43;;
527;SDS011;250;47.712;7.508;2022-08-18T05:46:03;14.33;;;10.10;;
527;SDS011;250;47.712;7.508;2022-08-18T05:48:32;11.67;;;7.73;;
527;SDS011;250;47.712;7.508;2022-08-18T05:51:02;9.87;;;8.50;;
527;SDS011;250;47.712;7.508;2022-08-18T05:53:39;13.33;;;9.03;;
527;SDS011;250;47.712;7.508;2022-08-18T05:56:26;11.57;;;8.40;;
527;SDS011;250;47.712;7.508;2022-08-18T05:59:15;9.57;;;8.57;;
527;SDS011;250;47.712;7.508;2022-08-18T06:01:47;12.27;;;8.10;;
527;SDS011;250;47.712;7.508;2022-08-18T06:04:25;9.97;;;8.97;;
527;SDS011;250;47.712;7.508;2022-08-18T06:06:58;9.30;;;7.87;;
527;SDS011;250;47.712;7.508;2022-08-18T06:09:33;9.63;;;8.63;;
527;SDS011;250;47.712;7.508;2022-08-18T06:12:07;7.57;;;6.87;;
527;SDS011;250;47.712;7.508;2022-08-18T06:14:41;9.77;;;8.77;;
527;SDS011;250;47.712;7.508;2022-08-18T06:17:12;11.40;;;8.47;;
527;SDS011;250;47.712;7.508;2022-08-18T06:20:03;8.23;;;7.43;;
527;SDS011;250;47.712;7.508;2022-08-18T06:22:39;11.00;;;7.50;;
527;SDS011;250;47.712;7.508;2022-08-18T06:25:15;8.27;;;7.47;;
527;SDS011;250;47.712;7.508;2022-08-18T06:27:52;10.10;;;7.80;;
527;SDS011;250;47.712;7.508;2022-08-18T06:30:26;10.70;;;8.60;;
527;SDS011;250;47.712;7.508;2022-08-18T06:33:11;8.23;;;7.43;;
527;SDS011;250;47.712;7.508;2022-08-18T06:35:47;8.27;;;7.37;;
527;SDS011;250;47.712;7.508;2022-08-18T06:38:22;8.53;;;7.43;;
527;SDS011;250;47.712;7.508;2022-08-18T06:41:09;9.50;;;8.60;;
527;SDS011;250;47.712;7.508;2022-08-18T06:43:40;8.57;;;7.67;;
527;SDS011;250;47.712;7.508;2022-08-18T06:46:16;9.27;;;8.37;;
527;SDS011;250;47.712;7.508;2022-08-18T06:48:47;10.20;;;8.40;;
527;SDS011;250;47.712;7.508;2022-08-18T06:51:20;11.40;;;8.07;;
527;SDS011;250;47.712;7.508;2022-08-18T06:53:50;9.37;;;7.97;;
527;SDS011;250;47.712;7.508;2022-08-18T06:56:22;9.60;;;8.53;;
527;SDS011;250;47.712;7.508;2022-08-18T06:58:52;13.47;;;8.37;;
527;SDS011;250;47.712;7.508;2022-08-18T07:01:20;9.87;;;8.97;;
527;SDS011;250;47.712;7.508;2022-08-18T07:03:49;9.33;;;8.30;;
527;SDS011;250;47.712;7.508;2022-08-18T07:06:24;10.23;;;9.20;;
527;SDS011;250;47.712;7.508;2022-08-18T07:09:16;8.83;;;7.70;;
527;SDS011;250;47.712;7.508;2022-08-18T07:11:57;9.50;;;8.30;;
527;SDS011;250;47.712;7.508;2022-08-18T07:14:29;11.27;;;8.57;;
527;SDS011;250;47.712;7.508;2022-08-18T07:17:07;10.27;;;9.07;;
527;SDS011;250;47.712;7.508;2022-08-18T07:19:35;11.20;;;8.40;;
527;SDS011;250;47.712;7.508;2022-08-18T07:22:04;12.40;;;9.07;;
527;SDS011;250;47.712;7.508;2022-08-18T07:24:34;9.13;;;8.03;;
527;SDS011;250;47.712;7.508;2022-08-18T07:27:08;10.70;;;9.03;;
527;SDS011;250;47.712;7.508;2022-08-18T07:29:37;10.63;;;8.67;;
527;SDS011;250;47.712;7.508;2022-08-18T07:32:08;11.50;;;10.40;;
527;SDS011;250;47.712;7.508;2022-08-18T07:34:40;8.70;;;7.37;;
527;SDS011;250;47.712;7.508;2022-08-18T07:37:13;11.03;;;8.17;;
527;SDS011;250;47.712;7.508;2022-08-18T07:39:44;10.77;;;8.93;;
527;SDS011;250;47.712;7.508;2022-08-18T07:42:18;10.67;;;9.30;;
527;SDS011;250;47.712;7.508;2022-08-18T07:44:55;10.33;;;8.93;;
527;SDS011;250;47.712;7.508;2022-08-18T07:47:27;12.33;;;8.20;;
527;SDS011;250;47.712;7.508;2022-08-18T07:50:01;10.27;;;9.27;;
527;SDS011;250;47.712;7.508;2022-08-18T07:52:30;12.67;;;8.97;;
527;SDS011;250;47.712;7.508;2022-08-18T07:55:03;11.50;;;8.87;;
527;SDS011;250;47.712;7.508;2022-08-18T07:57:38;10.73;;;8.60;;
527;SDS011;250;47.712;7.508;2022-08-18T08:00:14;10.70;;;8.90;;
527;SDS011;250;47.712;7.508;2022-08-18T08:02:48;13.40;;;10.33;;
527;SDS011;250;47.712;7.508;2022-08-18T08:05:31;18.23;;;10.70;;
527;SDS011;250;47.712;7.508;2022-08-18T08:08:17;15.33;;;10.83;;
527;SDS011;250;47.712;7.508;2022-08-18T08:10:49;11.97;;;9.50;;
527;SDS011;250;47.712;7.508;2022-08-18T08:13:33;10.90;;;9.43;;
527;SDS011;250;47.712;7.508;2022-08-18T08:16:09;12.53;;;9.47;;
527;SDS011;250;47.712;7.508;2022-08-18T08:18:47;11.30;;;9.33;;
527;SDS011;250;47.712;7.508;2022-08-18T08:21:24;14.10;;;10.00;;
527;SDS011;250;47.712;7.508;2022-08-18T08:24:00;10.67;;;9.57;;
527;SDS011;250;47.712;7.508;2022-08-18T08:26:40;9.90;;;8.30;;
527;SDS011;250;47.712;7.508;2022-08-18T08:29:19;10.13;;;9.00;;
527;SDS011;250;47.712;7.508;2022-08-18T08:31:53;9.77;;;8.80;;
527;SDS011;250;47.712;7.508;2022-08-18T08:34:26;14.27;;;8.90;;
527;SDS011;250;47.712;7.508;2022-08-18T08:36:59;9.80;;;8.73;;
527;SDS011;250;47.712;7.508;2022-08-18T08:39:31;11.83;;;9.93;;
527;SDS011;250;47.712;7.508;2022-08-18T08:42:04;11.63;;;8.90;;
527;SDS011;250;47.712;7.508;2022-08-18T08:44:39;10.80;;;9.80;;
527;SDS011;250;47.712;7.508;2022-08-18T08:47:14;13.33;;;10.10;;
527;SDS011;250;47.712;7.508;2022-08-18T08:49:48;10.83;;;9.57;;
527;SDS011;250;47.712;7.508;2022-08-18T08:52:20;9.60;;;8.60;;
527;SDS011;250;47.712;7.508;2022-08-18T08:54:51;12.47;;;9.50;;
527;SDS011;250;47.712;7.508;2022-08-18T08:57:25;11.40;;;9.17;;
527;SDS011;250;47.712;7.508;2022-08-18T08:59:57;9.97;;;8.87;;
527;SDS011;250;47.712;7.508;2022-08-18T09:02:30;12.70;;;9.40;;
527;SDS011;250;47.712;7.508;2022-08-18T09:05:06;9.10;;;8.23;;
527;SDS011;250;47.712;7.508;2022-08-18T09:07:41;9.83;;;8.93;;
527;SDS011;250;47.712;7.508;2022-08-18T09:10:28;11.90;;;9.33;;
527;SDS011;250;47.712;7.508;2022-08-18T09:13:17;12.60;;;9.70;;
527;SDS011;250;47.712;7.508;2022-08-18T09:16:08;9.60;;;8.70;;
527;SDS011;250;47.712;7.508;2022-08-18T09:18:47;11.37;;;8.87;;
527;SDS011;250;47.712;7.508;2022-08-18T09:21:29;13.53;;;9.77;;
527;SDS011;250;47.712;7.508;2022-08-18T09:24:06;8.57;;;7.77;;
527;SDS011;250;47.712;7.508;2022-08-18T09:26:48;10.70;;;8.70;;
527;SDS011;250;47.712;7.508;2022-08-18T09:29:23;11.10;;;9.10;;
527;SDS011;250;47.712;7.508;2022-08-18T09:35:35;10.20;;;9.10;;
527;SDS011;250;47.712;7.508;2022-08-18T09:38:13;13.30;;;8.63;;
527;SDS011;250;47.712;7.508;2022-08-18T09:41:04;11.23;;;8.73;;
527;SDS011;250;47.712;7.508;2022-08-18T09:43:54;9.87;;;7.97;;
527;SDS011;250;47.712;7.508;2022-08-18T09:46:54;10.23;;;9.13;;
527;SDS011;250;47.712;7.508;2022-08-18T09:55:41;10.20;;;8.30;;
527;SDS011;250;47.712;7.508;2022-08-18T09:58:31;9.83;;;7.80;;
527;SDS011;250;47.712;7.508;2022-08-18T10:01:36;9.00;;;8.10;;
527;SDS011;250;47.712;7.508;2022-08-18T10:07:15;11.53;;;8.93;;
527;SDS011;250;47.712;7.508;2022-08-18T10:09:57;12.23;;;8.90;;
527;SDS011;250;47.712;7.508;2022-08-18T10:12:55;12.30;;;9.80;;
527;SDS011;250;47.712;7.508;2022-08-18T10:15:33;10.47;;;9.47;;
527;SDS011;250;47.712;7.508;2022-08-18T10:18:12;11.17;;;10.07;;
527;SDS011;250;47.712;7.508;2022-08-18T10:21:10;11.33;;;10.03;;
527;SDS011;250;47.712;7.508;2022-08-18T10:23:55;12.33;;;11.13;;
527;SDS011;250;47.712;7.508;2022-08-18T10:29:50;10.00;;;8.93;;
527;SDS011;250;47.712;7.508;2022-08-18T10:32:24;10.77;;;9.87;;
527;SDS011;250;47.712;7.508;2022-08-18T10:35:03;11.30;;;9.23;;
527;SDS011;250;47.712;7.508;2022-08-18T10:37:51;9.80;;;8.60;;
527;SDS011;250;47.712;7.508;2022-08-18T10:40:20;10.50;;;8.43;;
527;SDS011;250;47.712;7.508;2022-08-18T10:42:51;8.73;;;7.50;;
527;SDS011;250;47.712;7.508;2022-08-18T10:45:27;8.93;;;7.87;;
527;SDS011;250;47.712;7.508;2022-08-18T10:48:01;10.53;;;9.37;;
527;SDS011;250;47.712;7.508;2022-08-18T10:50:36;8.83;;;7.93;;
527;SDS011;250;47.712;7.508;2022-08-18T10:53:08;9.10;;;7.83;;
527;SDS011;250;47.712;7.508;2022-08-18T10:55:46;8.27;;;7.47;;
527;SDS011;250;47.712;7.508;2022-08-18T10:58:19;9.20;;;6.80;;
527;SDS011;250;47.712;7.508;2022-08-18T11:01:02;7.23;;;6.33;;
527;SDS011;250;47.712;7.508;2022-08-18T11:06:40;7.43;;;6.00;;
527;SDS011;250;47.712;7.508;2022-08-18T11:09:09;6.13;;;5.53;;
527;SDS011;250;47.712;7.508;2022-08-18T11:11:39;5.77;;;5.17;;
527;SDS011;250;47.712;7.508;2022-08-18T11:14:15;7.53;;;5.50;;
527;SDS011;250;47.712;7.508;2022-08-18T11:17:00;6.67;;;5.57;;
527;SDS011;250;47.712;7.508;2022-08-18T11:19:34;5.73;;;5.13;;
527;SDS011;250;47.712;7.508;2022-08-18T11:22:03;5.63;;;5.13;;
527;SDS011;250;47.712;7.508;2022-08-18T11:24:31;6.33;;;5.00;;
527;SDS011;250;47.712;7.508;2022-08-18T11:27:02;5.17;;;4.50;;
527;SDS011;250;47.712;7.508;2022-08-18T11:29:32;5.50;;;4.97;;
527;SDS011;250;47.712;7.508;2022-08-18T11:32:03;5.93;;;5.10;;
527;SDS011;250;47.712;7.508;2022-08-18T11:34:37;5.50;;;4.90;;
527;SDS011;250;47.712;7.508;2022-08-18T11:37:08;5.83;;;4.60;;
527;SDS011;250;47.712;7.508;2022-08-18T11:39:46;4.90;;;3.90;;
527;SDS011;250;47.712;7.508;2022-08-18T11:42:17;4.57;;;4.10;;
527;SDS011;250;47.712;7.508;2022-08-18T11:44:52;6.17;;;4.70;;
527;SDS011;250;47.712;7.508;2022-08-18T11:47:20;5.17;;;4.67;;
527;SDS011;250;47.712;7.508;2022-08-18T11:49:53;6.47;;;5.90;;
527;SDS011;250;47.712;7.508;2022-08-18T11:52:24;7.87;;;4.77;;
527;SDS011;250;47.712;7.508;2022-08-18T11:54:57;6.13;;;5.50;;
527;SDS011;250;47.712;7.508;2022-08-18T11:57:36;5.13;;;4.63;;
527;SDS011;250;47.712;7.508;2022-08-18T12:03:04;6.27;;;5.67;;
527;SDS011;250;47.712;7.508;2022-08-18T12:05:44;7.10;;;6.40;;
527;SDS011;250;47.712;7.508;2022-08-18T12:08:19;6.00;;;4.73;;
527;SDS011;250;47.712;7.508;2022-08-18T12:10:48;6.43;;;5.10;;
527;SDS011;250;47.712;7.508;2022-08-18T12:13:29;5.27;;;4.77;;
527;SDS011;250;47.712;7.508;2022-08-18T12:16:13;6.03;;;5.43;;
527;SDS011;250;47.712;7.508;2022-08-18T12:18:43;5.13;;;4.43;;
527;SDS011;250;47.712;7.508;2022-08-18T12:21:10;5.27;;;4.63;;
527;SDS011;250;47.712;7.508;2022-08-18T12:23:38;5.53;;;4.13;;
527;SDS011;250;47.712;7.508;2022-08-18T12:26:09;5.47;;;4.90;;
527;SDS011;250;47.712;7.508;2022-08-18T12:28:38;5.20;;;4.70;;
527;SDS011;250;47.712;7.508;2022-08-18T12:31:06;4.50;;;4.10;;
527;SDS011;250;47.712;7.508;2022-08-18T12:33:33;6.00;;;4.60;;
527;SDS011;250;47.712;7.508;2022-08-18T12:36:01;5.40;;;4.90;;
527;SDS011;250;47.712;7.508;2022-08-18T12:38:30;5.33;;;4.03;;
527;SDS011;250;47.712;7.508;2022-08-18T12:40:58;4.77;;;4.10;;
527;SDS011;250;47.712;7.508;2022-08-18T12:43:25;4.23;;;3.80;;
527;SDS011;250;47.712;7.508;2022-08-18T12:45:53;4.90;;;4.37;;
527;SDS011;250;47.712;7.508;2022-08-18T12:48:21;5.83;;;4.90;;
527;SDS011;250;47.712;7.508;2022-08-18T12:50:48;6.40;;;5.70;;
527;SDS011;250;47.712;7.508;2022-08-18T12:53:15;5.80;;;5.20;;
527;SDS011;250;47.712;7.508;2022-08-18T12:55:42;6.30;;;5.70;;
527;SDS011;250;47.712;7.508;2022-08-18T12:58:09;6.80;;;5.50;;
527;SDS011;250;47.712;7.508;2022-08-18T13:00:37;8.10;;;5.13;;
527;SDS011;250;47.712;7.508;2022-08-18T13:03:07;4.97;;;4.50;;
527;SDS011;250;47.712;7.508;2022-08-18T13:05:34;4.53;;;4.13;;
527;SDS011;250;47.712;7.508;2022-08-18T13:08:02;6.77;;;3.80;;
527;SDS011;250;47.712;7.508;2022-08-18T13:10:31;4.37;;;3.97;;
527;SDS011;250;47.712;7.508;2022-08-18T13:12:59;4.57;;;4.17;;
527;SDS011;250;47.712;7.508;2022-08-18T13:15:26;4.43;;;4.03;;
527;SDS011;250;47.712;7.508;2022-08-18T13:17:53;5.80;;;3.90;;
527;SDS011;250;47.712;7.508;2022-08-18T13:20:21;4.33;;;3.93;;
527;SDS011;250;47.712;7.508;2022-08-18T13:22:48;4.63;;;4.07;;
527;SDS011;250;47.712;7.508;2022-08-18T13:25:16;6.10;;;4.87;;
527;SDS011;250;47.712;7.508;2022-08-18T13:27:43;5.07;;;4.57;;
527;SDS011;250;47.712;7.508;2022-08-18T13:30:12;5.53;;;4.33;;
527;SDS011;250;47.712;7.508;2022-08-18T13:32:41;5.33;;;4.83;;
527;SDS011;250;47.712;7.508;2022-08-18T13:35:09;6.00;;;4.60;;
527;SDS011;250;47.712;7.508;2022-08-18T13:37:37;5.40;;;4.60;;
527;SDS011;250;47.712;7.508;2022-08-18T13:40:06;5.23;;;4.30;;
527;SDS011;250;47.712;7.508;2022-08-18T13:42:40;5.00;;;4.50;;
527;SDS011;250;47.712;7.508;2022-08-18T13:45:10;3.47;;;3.17;;
527;SDS011;250;47.712;7.508;2022-08-18T13:47:38;4.23;;;3.83;;
527;SDS011;250;47.712;7.508;2022-08-18T13:50:06;5.40;;;4.77;;
527;SDS011;250;47.712;7.508;2022-08-18T13:52:35;4.60;;;4.20;;
527;SDS011;250;47.712;7.508;2022-08-18T13:55:05;4.70;;;4.10;;
527;SDS011;250;47.712;7.508;2022-08-18T13:57:35;5.03;;;3.67;;
527;SDS011;250;47.712;7.508;2022-08-18T14:00:04;5.33;;;4.37;;
527;SDS011;250;47.712;7.508;2022-08-18T14:02:33;5.67;;;3.93;;
527;SDS011;250;47.712;7.508;2022-08-18T14:05:00;4.90;;;3.93;;
527;SDS011;250;47.712;7.508;2022-08-18T14:07:28;4.67;;;4.27;;
527;SDS011;250;47.712;7.508;2022-08-18T14:09:57;4.73;;;4.23;;
527;SDS011;250;47.712;7.508;2022-08-18T14:12:24;5.20;;;4.60;;
527;SDS011;250;47.712;7.508;2022-08-18T14:14:51;6.93;;;4.10;;
527;SDS011;250;47.712;7.508;2022-08-18T14:17:19;5.00;;;4.27;;
527;SDS011;250;47.712;7.508;2022-08-18T14:19:47;5.90;;;4.30;;
527;SDS011;250;47.712;7.508;2022-08-18T14:22:32;4.87;;;4.37;;
527;SDS011;250;47.712;7.508;2022-08-18T14:25:18;5.73;;;5.17;;
527;SDS011;250;47.712;7.508;2022-08-18T14:28:03;7.20;;;6.20;;
527;SDS011;250;47.712;7.508;2022-08-18T14:30:30;7.60;;;6.60;;
527;SDS011;250;47.712;7.508;2022-08-18T14:32:57;5.80;;;5.23;;
527;SDS011;250;47.712;7.508;2022-08-18T14:35:24;6.13;;;5.43;;
527;SDS011;250;47.712;7.508;2022-08-18T14:37:51;5.13;;;4.63;;
527;SDS011;250;47.712;7.508;2022-08-18T14:40:20;5.30;;;4.60;;
527;SDS011;250;47.712;7.508;2022-08-18T14:42:47;4.70;;;4.30;;
527;SDS011;250;47.712;7.508;2022-08-18T14:45:14;8.63;;;4.67;;
527;SDS011;250;47.712;7.508;2022-08-18T14:47:41;5.73;;;5.13;;
527;SDS011;250;47.712;7.508;2022-08-18T14:50:09;4.80;;;4.23;;
527;SDS011;250;47.712;7.508;2022-08-18T14:52:37;5.27;;;4.77;;
527;SDS011;250;47.712;7.508;2022-08-18T14:55:06;5.53;;;4.80;;
527;SDS011;250;47.712;7.508;2022-08-18T14:57:37;4.73;;;4.17;;
527;SDS011;250;47.712;7.508;2022-08-18T15:00:05;5.40;;;4.90;;
527;SDS011;250;47.712;7.508;2022-08-18T15:02:36;6.47;;;5.40;;
527;SDS011;250;47.712;7.508;2022-08-18T15:05:04;5.47;;;4.93;;
527;SDS011;250;47.712;7.508;2022-08-18T15:07:32;5.57;;;5.07;;
527;SDS011;250;47.712;7.508;2022-08-18T15:10:02;5.27;;;4.80;;
527;SDS011;250;47.712;7.508;2022-08-18T15:12:29;6.23;;;5.73;;
527;SDS011;250;47.712;7.508;2022-08-18T15:14:58;6.90;;;6.20;;
527;SDS011;250;47.712;7.508;2022-08-18T15:17:25;8.23;;;5.87;;
527;SDS011;250;47.712;7.508;2022-08-18T15:19:52;5.60;;;5.10;;
527;SDS011;250;47.712;7.508;2022-08-18T15:22:19;5.60;;;4.87;;
527;SDS011;250;47.712;7.508;2022-08-18T15:25:05;6.03;;;5.53;;
527;SDS011;250;47.712;7.508;2022-08-18T15:27:51;5.90;;;5.30;;
527;SDS011;250;47.712;7.508;2022-08-18T15:30:20;6.50;;;5.90;;
527;SDS011;250;47.712;7.508;2022-08-18T15:32:47;5.97;;;5.47;;
527;SDS011;250;47.712;7.508;2022-08-18T15:35:15;8.03;;;4.97;;
527;SDS011;250;47.712;7.508;2022-08-18T15:37:43;5.80;;;5.20;;
527;SDS011;250;47.712;7.508;2022-08-18T15:40:13;7.53;;;6.73;;
527;SDS011;250;47.712;7.508;2022-08-18T15:42:44;7.00;;;6.30;;
527;SDS011;250;47.712;7.508;2022-08-18T15:45:15;7.53;;;6.50;;
527;SDS011;250;47.712;7.508;2022-08-18T15:47:43;7.77;;;7.07;;
527;SDS011;250;47.712;7.508;2022-08-18T15:50:12;6.67;;;5.47;;
527;SDS011;250;47.712;7.508;2022-08-18T15:52:46;9.67;;;7.00;;
527;SDS011;250;47.712;7.508;2022-08-18T15:55:14;6.93;;;6.33;;
527;SDS011;250;47.712;7.508;2022-08-18T15:57:42;6.53;;;5.90;;
527;SDS011;250;47.712;7.508;2022-08-18T16:00:10;6.90;;;6.20;;
527;SDS011;250;47.712;7.508;2022-08-18T16:02:40;5.73;;;5.23;;
527;SDS011;250;47.712;7.508;2022-08-18T16:05:10;7.40;;;6.47;;
527;SDS011;250;47.712;7.508;2022-08-18T16:07:37;6.67;;;5.97;;
527;SDS011;250;47.712;7.508;2022-08-18T16:10:08;6.70;;;6.10;;
527;SDS011;250;47.712;7.508;2022-08-18T16:12:35;6.77;;;6.07;;
527;SDS011;250;47.712;7.508;2022-08-18T16:15:03;7.77;;;6.97;;
527;SDS011;250;47.712;7.508;2022-08-18T16:17:31;7.00;;;6.30;;
527;SDS011;250;47.712;7.508;2022-08-18T16:19:58;7.93;;;6.30;;
527;SDS011;250;47.712;7.508;2022-08-18T16:22:27;7.13;;;6.43;;
527;SDS011;250;47.712;7.508;2022-08-18T16:24:57;7.90;;;6.33;;
527;SDS011;250;47.712;7.508;2022-08-18T16:27:29;7.13;;;6.43;;
527;SDS011;250;47.712;7.508;2022-08-18T16:29:58;6.53;;;5.90;;